Skip Navigation Links Skip Navigation Links

Current Weather

Andrews AFB, Camp Springs, Md.

For information only: do not use for flight planning or navigation.
Latest weather
Observation time Wednesday, December 2, 2020 10:56 PM EST
Local time Wednesday, December 2, 2020 11:45 PM EST
Flight conditions Visual Meteorological Conditions
Winds
Wind direction West-Northwest (290°)
Wind speed 8 mph
Visibility 10 mi.
Sky condition
Ceiling unlimited
Sky clear
Temperature 39°F
Dewpoint 17°F
Altimeter 30.23 in.Hg
Derived measurements
Relative humidity 40%
Wind chill 34°F
Density altitude -1351 ft.
Sea-level pressure 30.26 in.Hg
Remarks
Fully automated report.
System requires maintenance.
Automated weather observing station with precipitation discriminator.
METAR KADW 030356Z AUTO 29007KT 10SM CLR 04/M08 A3023 RMK AO2 SLP246 T00401084 $

Settings

Location code

InnerDrive.Weather 4.0.6770.0 Release CLR 4.0.30319.42000
Copyright ©2018 Inner Drive Technology. All rights reserved. Portions Copyright ©1986-2018 David Braverman.

Find weather

Site navigation


Skip Navigation Links

Place info

Page info

PayPal - The safer, easier way to pay online!

Return home.

Copyright ©2020 Inner Drive Technology. Purveyors of fine, hand-crafted computer software. Page printed 2020-12-03T04:45:11 UTC.